Time;durP1;ratioP1;P1;durP2;ratioP2;P2;SDS_P1;SDS_P2;PMS_P1;PMS_P2;Temp;Humidity;BMP_temperature;BMP_pressure;BME280_temperature;BME280_humidity;BME280_pressure;Samples;Min_cycle;Max_cycle;Signal;HPM_P1;HPM_P2
2023/01/23 00:00:09;;;;;;;14.65;3.67;;;;;;;;;;5114428;27;20074;-80
2023/01/23 00:02:36;;;;;;;13.13;4.10;;;;;;;;;;5115142;27;20023;-78
2023/01/23 00:05:02;;;;;;;10.25;4.78;;;;;;;;;;5112954;27;20042;-80
2023/01/23 00:07:28;;;;;;;7.30;3.63;;;;;;;;;;5106578;27;20040;-78
2023/01/23 00:09:54;;;;;;;11.68;4.72;;;;;;;;;;5103474;27;20096;-79
2023/01/23 00:12:20;;;;;;;14.20;4.47;;;;;;;;;;5105829;27;20024;-78
2023/01/23 00:14:46;;;;;;;14.88;4.20;;;;;;;;;;5091836;28;20028;-79
2023/01/23 00:17:12;;;;;;;17.42;5.68;;;;;;;;;;5104617;27;20113;-78
2023/01/23 00:19:39;;;;;;;10.90;4.32;;;;;;;;;;5112022;27;20036;-77
2023/01/23 00:22:05;;;;;;;12.68;4.07;;;;;;;;;;5109453;27;20031;-78
2023/01/23 00:24:31;;;;;;;9.68;4.10;;;;;;;;;;5110149;27;20031;-78
2023/01/23 00:26:57;;;;;;;10.93;4.57;;;;;;;;;;5108418;28;20039;-81
2023/01/23 00:29:23;;;;;;;13.00;4.43;;;;;;;;;;5112879;27;20030;-78
2023/01/23 00:31:49;;;;;;;15.00;4.22;;;;;;;;;;5111071;27;20480;-79
2023/01/23 00:34:15;;;;;;;11.07;4.35;;;;;;;;;;5113506;27;20058;-81
2023/01/23 00:36:42;;;;;;;12.02;4.43;;;;;;;;;;5112199;27;20479;-77
2023/01/23 00:39:12;;;;;;;16.73;5.50;;;;;;;;;;5112782;28;20035;-80
2023/01/23 00:41:38;;;;;;;11.52;4.93;;;;;;;;;;5109607;28;20093;-79
2023/01/23 00:44:04;;;;;;;8.02;4.57;;;;;;;;;;5100893;28;20096;-80
2023/01/23 00:46:30;;;;;;;15.15;4.63;;;;;;;;;;5109230;28;20484;-78
2023/01/23 00:48:56;;;;;;;10.95;4.57;;;;;;;;;;5114781;28;20392;-81
2023/01/23 00:51:22;;;;;;;11.55;4.90;;;;;;;;;;5106323;28;20027;-78
2023/01/23 00:53:48;;;;;;;9.63;4.70;;;;;;;;;;5117469;27;20028;-78
2023/01/23 00:56:15;;;;;;;11.98;4.68;;;;;;;;;;5113433;27;20095;-78
2023/01/23 00:58:41;;;;;;;14.52;4.55;;;;;;;;;;5113931;27;20050;-78
2023/01/23 01:01:08;;;;;;;12.45;4.70;;;;;;;;;;5104861;27;20040;-81
2023/01/23 01:03:34;;;;;;;9.93;4.32;;;;;;;;;;5121303;27;20140;-81
2023/01/23 01:06:00;;;;;;;8.82;4.30;;;;;;;;;;5111822;27;20106;-79
2023/01/23 01:08:26;;;;;;;14.23;4.28;;;;;;;;;;5118046;27;20043;-78
2023/01/23 01:10:52;;;;;;;15.00;4.57;;;;;;;;;;5112477;27;20039;-78
2023/01/23 01:13:20;;;;;;;14.18;4.72;;;;;;;;;;5109933;27;20055;-80
2023/01/23 01:15:49;;;;;;;10.93;4.43;;;;;;;;;;5114669;27;20354;-78
2023/01/23 01:18:16;;;;;;;12.32;4.97;;;;;;;;;;5116732;27;20023;-78
2023/01/23 01:20:43;;;;;;;12.68;4.68;;;;;;;;;;5117767;27;20063;-78
2023/01/23 01:23:09;;;;;;;9.20;4.40;;;;;;;;;;5099696;27;20039;-78
2023/01/23 01:25:35;;;;;;;11.70;4.40;;;;;;;;;;5117721;27;20168;-78
2023/01/23 01:28:02;;;;;;;9.48;4.40;;;;;;;;;;5116401;27;20030;-79
2023/01/23 01:30:29;;;;;;;12.18;5.00;;;;;;;;;;5112783;27;20092;-77
2023/01/23 01:32:55;;;;;;;13.40;6.07;;;;;;;;;;5114399;27;20472;-78
2023/01/23 01:35:21;;;;;;;12.57;5.05;;;;;;;;;;5113943;27;20496;-78
2023/01/23 01:37:47;;;;;;;9.73;4.75;;;;;;;;;;5116238;27;20024;-78
2023/01/23 01:40:15;;;;;;;14.70;5.75;;;;;;;;;;5116599;27;20023;-78
2023/01/23 01:42:42;;;;;;;17.35;5.50;;;;;;;;;;5113462;27;20081;-77
2023/01/23 01:45:28;;;;;;;8.75;4.88;;;;;;;;;;5114284;27;20622;-78
2023/01/23 01:47:54;;;;;;;14.68;5.53;;;;;;;;;;5108379;27;20027;-78
2023/01/23 01:50:20;;;;;;;12.07;4.65;;;;;;;;;;5114013;27;20135;-76
2023/01/23 01:52:46;;;;;;;10.23;5.00;;;;;;;;;;5118548;27;20031;-77
2023/01/23 01:55:14;;;;;;;13.40;4.82;;;;;;;;;;5105282;27;20031;-77
2023/01/23 01:57:42;;;;;;;13.77;6.00;;;;;;;;;;5115203;27;20040;-77
2023/01/23 02:00:10;;;;;;;12.80;5.07;;;;;;;;;;5117697;27;20031;-78
2023/01/23 02:02:48;;;;;;;10.48;5.57;;;;;;;;;;5116379;27;20076;-79
2023/01/23 02:05:17;;;;;;;12.00;5.25;;;;;;;;;;5109170;27;20019;-78
2023/01/23 02:08:02;;;;;;;12.32;6.13;;;;;;;;;;5110746;27;20024;-79
2023/01/23 02:10:28;;;;;;;10.27;5.00;;;;;;;;;;5117902;27;20039;-79
2023/01/23 02:12:54;;;;;;;10.18;4.55;;;;;;;;;;5113769;27;20023;-78
2023/01/23 02:15:21;;;;;;;10.32;4.95;;;;;;;;;;5100603;27;20023;-79
2023/01/23 02:17:49;;;;;;;12.80;5.28;;;;;;;;;;5111928;27;20491;-78
2023/01/23 02:20:23;;;;;;;8.45;5.45;;;;;;;;;;5113064;27;20027;-77
2023/01/23 02:25:41;;;;;;;14.38;6.38;;;;;;;;;;5112054;27;20034;-78
2023/01/23 02:28:08;;;;;;;12.13;5.68;;;;;;;;;;5112567;27;20023;-78
2023/01/23 02:30:35;;;;;;;10.93;5.68;;;;;;;;;;5112446;27;20042;-77
2023/01/23 02:33:11;;;;;;;12.32;5.53;;;;;;;;;;5103084;27;20466;-78
2023/01/23 02:35:38;;;;;;;13.65;5.60;;;;;;;;;;5115588;27;20019;-78
2023/01/23 02:38:05;;;;;;;12.27;5.15;;;;;;;;;;5110546;27;20047;-77
2023/01/23 02:40:36;;;;;;;8.75;5.05;;;;;;;;;;5109227;27;20031;-78
2023/01/23 02:43:06;;;;;;;12.75;5.45;;;;;;;;;;5114741;27;20414;-78
2023/01/23 02:45:32;;;;;;;14.25;6.05;;;;;;;;;;5116633;27;20024;-77
2023/01/23 02:48:00;;;;;;;10.68;5.45;;;;;;;;;;5113058;27;20155;-78
2023/01/23 02:50:26;;;;;;;11.75;5.05;;;;;;;;;;5113600;27;20039;-77
2023/01/23 02:52:53;;;;;;;14.02;5.57;;;;;;;;;;5117194;27;20038;-78
2023/01/23 02:55:19;;;;;;;12.45;6.00;;;;;;;;;;5108051;27;20054;-77
2023/01/23 02:57:45;;;;;;;9.25;4.95;;;;;;;;;;5112800;27;20454;-78
2023/01/23 03:00:15;;;;;;;13.98;5.18;;;;;;;;;;5114915;27;20759;-78
2023/01/23 03:02:42;;;;;;;12.23;5.57;;;;;;;;;;5109813;27;20499;-77
2023/01/23 03:05:08;;;;;;;14.00;6.30;;;;;;;;;;5117890;27;20060;-78
2023/01/23 03:07:35;;;;;;;13.00;5.50;;;;;;;;;;5115305;27;20023;-79
2023/01/23 03:10:01;;;;;;;14.68;6.05;;;;;;;;;;5110837;27;20035;-79
2023/01/23 03:12:28;;;;;;;12.45;5.90;;;;;;;;;;5107067;27;20038;-77
2023/01/23 03:14:55;;;;;;;13.50;5.93;;;;;;;;;;5113209;27;20425;-77
2023/01/23 03:17:22;;;;;;;11.18;5.75;;;;;;;;;;5110892;27;20028;-77
2023/01/23 03:19:48;;;;;;;9.07;5.70;;;;;;;;;;5115163;27;20040;-78
2023/01/23 03:22:14;;;;;;;12.23;6.22;;;;;;;;;;5109901;27;20032;-77
2023/01/23 03:24:41;;;;;;;10.63;5.65;;;;;;;;;;5112231;27;20023;-77
2023/01/23 03:27:07;;;;;;;12.02;6.50;;;;;;;;;;5108648;27;20076;-77
2023/01/23 03:32:19;;;;;;;12.88;5.25;;;;;;;;;;5103842;27;20801;-77
2023/01/23 03:34:45;;;;;;;12.98;5.95;;;;;;;;;;5105838;27;20046;-77
2023/01/23 03:37:12;;;;;;;12.40;6.05;;;;;;;;;;5111553;27;20047;-77
2023/01/23 03:42:23;;;;;;;17.45;8.55;;;;;;;;;;5114511;27;20177;-77
2023/01/23 03:44:49;;;;;;;10.90;6.53;;;;;;;;;;5116081;27;20043;-77
2023/01/23 03:47:15;;;;;;;11.93;6.88;;;;;;;;;;5111843;27;20039;-77
2023/01/23 03:49:41;;;;;;;13.18;7.30;;;;;;;;;;5115077;27;20364;-77
2023/01/23 03:52:07;;;;;;;12.02;6.03;;;;;;;;;;5111077;27;20023;-77
2023/01/23 03:54:33;;;;;;;11.45;6.97;;;;;;;;;;5112342;27;20018;-77
2023/01/23 03:56:59;;;;;;;13.85;6.47;;;;;;;;;;5094235;27;20023;-79
2023/01/23 03:59:25;;;;;;;8.73;6.68;;;;;;;;;;5114263;27;20035;-79
2023/01/23 04:01:51;;;;;;;17.08;7.25;;;;;;;;;;5111723;27;20658;-76
2023/01/23 04:04:17;;;;;;;10.18;6.53;;;;;;;;;;5103545;28;20075;-76
2023/01/23 04:06:43;;;;;;;10.48;5.72;;;;;;;;;;5103909;27;20156;-79
2023/01/23 04:09:09;;;;;;;9.45;6.13;;;;;;;;;;5111307;27;20520;-78
2023/01/23 04:11:36;;;;;;;14.43;6.75;;;;;;;;;;5116133;27;20781;-81
2023/01/23 04:14:02;;;;;;;12.55;6.38;;;;;;;;;;5103834;27;20031;-79
2023/01/23 04:16:28;;;;;;;12.43;6.47;;;;;;;;;;5107760;27;20034;-78
2023/01/23 04:18:54;;;;;;;18.20;6.90;;;;;;;;;;5109224;27;20031;-77
2023/01/23 04:21:20;;;;;;;12.13;6.60;;;;;;;;;;5110583;28;20106;-77
2023/01/23 04:23:46;;;;;;;12.43;5.93;;;;;;;;;;5114745;27;20522;-81
2023/01/23 04:26:13;;;;;;;12.23;6.00;;;;;;;;;;5112779;27;20023;-77
2023/01/23 04:28:39;;;;;;;16.70;6.45;;;;;;;;;;5107381;28;20031;-77
2023/01/23 04:31:05;;;;;;;12.27;5.93;;;;;;;;;;5112651;27;20374;-77
2023/01/23 04:33:31;;;;;;;11.95;6.03;;;;;;;;;;5108587;27;20034;-77
2023/01/23 04:35:58;;;;;;;16.45;6.60;;;;;;;;;;5112237;28;20503;-77
2023/01/23 04:38:26;;;;;;;16.02;6.65;;;;;;;;;;5116853;27;20015;-78
2023/01/23 04:40:52;;;;;;;14.00;7.40;;;;;;;;;;5111395;28;20027;-77
2023/01/23 04:43:18;;;;;;;11.75;6.43;;;;;;;;;;5114266;28;20039;-77
2023/01/23 04:45:45;;;;;;;9.88;6.18;;;;;;;;;;5110732;28;20023;-77
2023/01/23 04:48:11;;;;;;;17.25;6.57;;;;;;;;;;5111034;28;20160;-77
2023/01/23 04:50:38;;;;;;;9.25;6.60;;;;;;;;;;5113666;28;20023;-77
2023/01/23 04:53:04;;;;;;;10.25;6.20;;;;;;;;;;5108789;28;20012;-77
2023/01/23 04:55:30;;;;;;;10.80;6.75;;;;;;;;;;5111121;28;20038;-77
2023/01/23 04:57:56;;;;;;;13.20;7.22;;;;;;;;;;5118224;28;20067;-78
2023/01/23 05:00:23;;;;;;;18.77;7.10;;;;;;;;;;5107030;28;20103;-78
2023/01/23 05:02:49;;;;;;;14.73;7.20;;;;;;;;;;5111993;28;20071;-77
2023/01/23 05:05:16;;;;;;;15.93;7.15;;;;;;;;;;5112028;28;20714;-78
2023/01/23 05:07:43;;;;;;;21.70;8.05;;;;;;;;;;5110621;28;20026;-79
2023/01/23 05:10:10;;;;;;;14.52;8.43;;;;;;;;;;5107501;28;20027;-81
2023/01/23 05:12:36;;;;;;;14.75;7.32;;;;;;;;;;5118779;28;20030;-77
2023/01/23 05:15:02;;;;;;;17.08;8.13;;;;;;;;;;5114084;28;20026;-79
2023/01/23 05:17:28;;;;;;;12.52;7.53;;;;;;;;;;5107029;28;20067;-77
2023/01/23 05:19:54;;;;;;;14.15;7.57;;;;;;;;;;5094428;28;20085;-78
2023/01/23 05:22:21;;;;;;;12.52;7.63;;;;;;;;;;5115345;28;20032;-78
2023/01/23 05:24:47;;;;;;;12.95;7.50;;;;;;;;;;5108315;28;20035;-78
2023/01/23 05:27:13;;;;;;;19.65;8.02;;;;;;;;;;5109569;28;20107;-78
2023/01/23 05:29:39;;;;;;;19.45;8.25;;;;;;;;;;5110128;28;20524;-78
2023/01/23 05:32:06;;;;;;;19.83;8.88;;;;;;;;;;5102636;28;20077;-79
2023/01/23 05:34:32;;;;;;;13.48;7.90;;;;;;;;;;5104035;28;20351;-78
2023/01/23 05:36:58;;;;;;;15.25;8.43;;;;;;;;;;5104096;28;20103;-78
2023/01/23 05:39:24;;;;;;;16.60;8.93;;;;;;;;;;5105208;28;20027;-78
2023/01/23 05:41:50;;;;;;;17.63;8.80;;;;;;;;;;5113185;27;20487;-78
2023/01/23 05:44:16;;;;;;;13.20;8.85;;;;;;;;;;5117625;27;20019;-77
2023/01/23 05:46:42;;;;;;;17.83;8.43;;;;;;;;;;5113380;27;20024;-78
2023/01/23 05:49:08;;;;;;;18.55;9.45;;;;;;;;;;5111704;27;20038;-78
2023/01/23 05:51:35;;;;;;;20.00;9.30;;;;;;;;;;5109918;27;20043;-78
2023/01/23 05:54:01;;;;;;;16.42;9.27;;;;;;;;;;5115145;27;20034;-79
2023/01/23 05:56:28;;;;;;;15.38;9.00;;;;;;;;;;5116109;27;20083;-80
2023/01/23 05:58:54;;;;;;;13.88;9.07;;;;;;;;;;5121178;27;20043;-78
2023/01/23 06:01:20;;;;;;;17.55;9.90;;;;;;;;;;5110892;27;20110;-78
2023/01/23 06:03:46;;;;;;;15.18;8.57;;;;;;;;;;5090274;27;20070;-78
2023/01/23 06:06:13;;;;;;;13.82;8.05;;;;;;;;;;5112977;27;20012;-79
2023/01/23 06:08:39;;;;;;;15.30;9.05;;;;;;;;;;5113358;27;20027;-81
2023/01/23 06:11:05;;;;;;;15.95;8.80;;;;;;;;;;5116298;27;20076;-80
2023/01/23 06:13:31;;;;;;;20.42;9.68;;;;;;;;;;5119606;27;20032;-80
2023/01/23 06:15:57;;;;;;;20.05;9.60;;;;;;;;;;5103939;28;20058;-79
2023/01/23 06:18:24;;;;;;;21.40;9.02;;;;;;;;;;5110863;27;20024;-78
2023/01/23 06:20:50;;;;;;;17.73;10.32;;;;;;;;;;5109906;27;20038;-79
2023/01/23 06:23:16;;;;;;;18.23;8.43;;;;;;;;;;5109925;27;20028;-76
2023/01/23 06:25:42;;;;;;;13.57;9.13;;;;;;;;;;5098245;28;20023;-78
2023/01/23 06:28:08;;;;;;;20.85;9.32;;;;;;;;;;5115236;27;20019;-79
2023/01/23 06:30:34;;;;;;;19.25;10.38;;;;;;;;;;5116757;27;20028;-79
2023/01/23 06:33:00;;;;;;;17.05;9.63;;;;;;;;;;5113189;27;20035;-80
2023/01/23 06:35:26;;;;;;;17.10;9.07;;;;;;;;;;5108976;27;20055;-78
2023/01/23 06:37:52;;;;;;;16.15;10.18;;;;;;;;;;5105610;27;20468;-78
2023/01/23 06:40:18;;;;;;;19.75;10.27;;;;;;;;;;5099185;28;20161;-78
2023/01/23 06:42:44;;;;;;;23.40;11.30;;;;;;;;;;5114079;27;20092;-78
2023/01/23 06:45:11;;;;;;;17.25;9.98;;;;;;;;;;5109270;27;20031;-78
2023/01/23 06:47:37;;;;;;;19.17;10.80;;;;;;;;;;5107226;27;20020;-78
2023/01/23 06:50:03;;;;;;;14.70;9.48;;;;;;;;;;5106881;28;20031;-82
2023/01/23 06:52:30;;;;;;;26.63;13.95;;;;;;;;;;5089187;28;20431;-78
2023/01/23 06:54:56;;;;;;;25.30;14.13;;;;;;;;;;5113313;28;20022;-81
2023/01/23 06:57:22;;;;;;;31.52;15.43;;;;;;;;;;5112262;28;20089;-78
2023/01/23 06:59:48;;;;;;;17.25;10.50;;;;;;;;;;5112016;27;20352;-80
2023/01/23 07:02:15;;;;;;;20.08;10.70;;;;;;;;;;5095189;28;20024;-80
2023/01/23 07:04:41;;;;;;;15.02;9.65;;;;;;;;;;5093582;28;20355;-78
2023/01/23 07:07:07;;;;;;;17.45;9.23;;;;;;;;;;5113084;28;20055;-77
2023/01/23 07:09:33;;;;;;;13.38;9.60;;;;;;;;;;5103847;27;20031;-81
2023/01/23 07:11:59;;;;;;;15.40;10.63;;;;;;;;;;5091989;28;20039;-77
2023/01/23 07:14:26;;;;;;;12.18;9.15;;;;;;;;;;5099867;28;20516;-76
2023/01/23 07:16:53;;;;;;;16.13;10.00;;;;;;;;;;5108131;28;20023;-76
2023/01/23 07:19:19;;;;;;;19.85;9.65;;;;;;;;;;5101104;27;20122;-76
2023/01/23 07:21:47;;;;;;;17.38;10.25;;;;;;;;;;5101560;27;20096;-76
2023/01/23 07:24:13;;;;;;;17.58;10.77;;;;;;;;;;5108294;27;20020;-75
2023/01/23 07:26:39;;;;;;;15.85;10.60;;;;;;;;;;5105041;27;20015;-76
2023/01/23 07:29:07;;;;;;;15.00;10.68;;;;;;;;;;5108649;27;20062;-77
2023/01/23 07:31:33;;;;;;;19.42;10.50;;;;;;;;;;5111690;27;20065;-77
2023/01/23 07:34:00;;;;;;;32.97;16.52;;;;;;;;;;5108054;27;20016;-78
2023/01/23 07:36:27;;;;;;;39.00;19.80;;;;;;;;;;5109914;27;20132;-77
2023/01/23 07:38:53;;;;;;;50.90;29.35;;;;;;;;;;5101307;27;20031;-77
2023/01/23 07:41:19;;;;;;;19.40;10.93;;;;;;;;;;5109228;27;20055;-78
2023/01/23 07:43:45;;;;;;;17.92;10.32;;;;;;;;;;5105701;27;20039;-77
2023/01/23 07:46:11;;;;;;;16.50;9.70;;;;;;;;;;5100805;28;20019;-77
2023/01/23 07:48:37;;;;;;;15.00;9.57;;;;;;;;;;5110711;27;20034;-76
2023/01/23 07:51:04;;;;;;;17.58;10.82;;;;;;;;;;5107195;27;20115;-77
2023/01/23 07:53:31;;;;;;;15.70;8.80;;;;;;;;;;5111744;28;20343;-78
2023/01/23 07:55:57;;;;;;;17.83;9.93;;;;;;;;;;5112032;28;20026;-78
2023/01/23 07:58:23;;;;;;;21.48;10.80;;;;;;;;;;5104346;28;20043;-77
2023/01/23 08:00:49;;;;;;;18.23;9.20;;;;;;;;;;5090202;28;20034;-75
2023/01/23 08:03:15;;;;;;;12.57;8.95;;;;;;;;;;5091667;28;20085;-74
2023/01/23 08:05:41;;;;;;;16.05;9.70;;;;;;;;;;5090820;28;20027;-74
2023/01/23 08:08:07;;;;;;;17.58;10.98;;;;;;;;;;5091592;28;20473;-74
2023/01/23 08:10:33;;;;;;;22.60;9.88;;;;;;;;;;5088791;28;20534;-76
2023/01/23 08:13:00;;;;;;;16.58;8.55;;;;;;;;;;5085804;28;20024;-79
2023/01/23 08:15:26;;;;;;;17.00;8.82;;;;;;;;;;5089991;28;20082;-75
2023/01/23 08:17:53;;;;;;;15.77;9.55;;;;;;;;;;5090627;28;20024;-75
2023/01/23 08:20:19;;;;;;;205.40;119.25;;;;;;;;;;5087214;28;20031;-80
2023/01/23 08:22:46;;;;;;;23.73;14.65;;;;;;;;;;5094463;28;20028;-78
2023/01/23 08:25:12;;;;;;;39.38;21.58;;;;;;;;;;5099243;28;20015;-76
2023/01/23 08:27:38;;;;;;;18.58;10.45;;;;;;;;;;5093654;28;20023;-77
2023/01/23 08:30:05;;;;;;;11.93;9.10;;;;;;;;;;5101273;28;20481;-78
2023/01/23 08:32:31;;;;;;;15.90;9.27;;;;;;;;;;5099657;28;20141;-77
2023/01/23 08:34:58;;;;;;;10.65;8.95;;;;;;;;;;5100959;28;20035;-77
2023/01/23 08:37:24;;;;;;;15.80;9.30;;;;;;;;;;5092294;28;20247;-76
2023/01/23 08:39:50;;;;;;;17.48;9.25;;;;;;;;;;5094771;28;20034;-77
2023/01/23 08:42:16;;;;;;;15.13;9.05;;;;;;;;;;5089536;28;20043;-76
2023/01/23 08:44:42;;;;;;;14.75;8.88;;;;;;;;;;5101412;28;20099;-77
2023/01/23 08:47:08;;;;;;;15.15;10.48;;;;;;;;;;5085613;28;20028;-77
2023/01/23 08:49:34;;;;;;;16.55;9.68;;;;;;;;;;5102227;28;20069;-77
2023/01/23 08:52:00;;;;;;;16.60;10.13;;;;;;;;;;5096914;28;20093;-77
2023/01/23 08:54:26;;;;;;;13.48;9.45;;;;;;;;;;5089889;28;20034;-77
2023/01/23 08:56:52;;;;;;;14.07;9.27;;;;;;;;;;5092210;28;20031;-77
2023/01/23 08:59:18;;;;;;;18.40;9.43;;;;;;;;;;5110335;28;20078;-77
2023/01/23 09:01:46;;;;;;;18.25;9.77;;;;;;;;;;5105904;28;20371;-78
2023/01/23 09:04:13;;;;;;;18.70;9.75;;;;;;;;;;5110242;28;20019;-79
2023/01/23 09:06:39;;;;;;;15.75;9.55;;;;;;;;;;5110308;28;20040;-78
2023/01/23 09:09:05;;;;;;;18.33;9.82;;;;;;;;;;5106844;28;20049;-78
2023/01/23 09:11:31;;;;;;;13.13;9.10;;;;;;;;;;5101410;28;20030;-79
2023/01/23 09:13:57;;;;;;;13.88;9.27;;;;;;;;;;5106477;28;20448;-81
2023/01/23 09:16:23;;;;;;;12.50;9.25;;;;;;;;;;5102008;27;20035;-79
2023/01/23 09:18:49;;;;;;;16.35;9.35;;;;;;;;;;5111137;27;20032;-79
2023/01/23 09:21:16;;;;;;;16.65;9.23;;;;;;;;;;5112942;27;20150;-80
2023/01/23 09:23:43;;;;;;;19.13;10.38;;;;;;;;;;5111582;27;20027;-79
2023/01/23 09:26:10;;;;;;;15.15;8.73;;;;;;;;;;5111902;27;20020;-79
2023/01/23 09:28:37;;;;;;;19.05;10.07;;;;;;;;;;5097855;27;20029;-78
2023/01/23 09:31:08;;;;;;;31.63;18.67;;;;;;;;;;5091638;28;20032;-83
2023/01/23 09:33:34;;;;;;;18.58;9.93;;;;;;;;;;5115058;27;20141;-82
2023/01/23 09:36:01;;;;;;;13.40;9.68;;;;;;;;;;5109817;27;20019;-80
2023/01/23 09:38:27;;;;;;;14.07;8.90;;;;;;;;;;5108295;27;20050;-76
2023/01/23 09:40:55;;;;;;;12.90;8.70;;;;;;;;;;5105863;28;20040;-78
2023/01/23 09:43:34;;;;;;;12.00;8.13;;;;;;;;;;5110198;27;20028;-78
2023/01/23 09:46:10;;;;;;;21.40;8.93;;;;;;;;;;5112693;27;20494;-80
2023/01/23 09:48:52;;;;;;;12.55;8.25;;;;;;;;;;5109746;27;20069;-79
2023/01/23 09:51:21;;;;;;;16.52;8.02;;;;;;;;;;5102024;28;20026;-79
2023/01/23 09:53:47;;;;;;;12.60;8.85;;;;;;;;;;5117870;27;20019;-79
2023/01/23 09:56:14;;;;;;;16.02;8.77;;;;;;;;;;5108174;27;20451;-79
2023/01/23 09:58:43;;;;;;;11.20;8.25;;;;;;;;;;5110163;27;20044;-79
2023/01/23 10:01:12;;;;;;;12.48;8.40;;;;;;;;;;5109038;27;20039;-79
2023/01/23 10:03:38;;;;;;;15.32;8.52;;;;;;;;;;5113041;27;20023;-79
2023/01/23 10:06:07;;;;;;;17.98;8.40;;;;;;;;;;5110094;27;20024;-81
2023/01/23 10:08:52;;;;;;;13.10;8.73;;;;;;;;;;5112525;27;20032;-79
2023/01/23 10:11:42;;;;;;;14.73;10.43;;;;;;;;;;5107315;27;20483;-79
2023/01/23 10:14:19;;;;;;;12.88;8.63;;;;;;;;;;5107975;28;20016;-79
2023/01/23 10:16:45;;;;;;;15.43;8.10;;;;;;;;;;5109267;27;20031;-78
2023/01/23 10:19:21;;;;;;;14.60;8.30;;;;;;;;;;5107758;27;20023;-79
2023/01/23 10:21:59;;;;;;;10.00;7.20;;;;;;;;;;5111840;27;20031;-79
2023/01/23 10:24:25;;;;;;;11.75;7.53;;;;;;;;;;5109887;27;20494;-78
2023/01/23 10:26:54;;;;;;;12.07;7.45;;;;;;;;;;5106624;28;20036;-79
2023/01/23 10:29:24;;;;;;;13.40;9.48;;;;;;;;;;5114052;27;20031;-79
2023/01/23 10:31:51;;;;;;;10.35;7.10;;;;;;;;;;5116388;27;20579;-79
2023/01/23 10:34:21;;;;;;;10.15;7.65;;;;;;;;;;5116139;27;20075;-78
2023/01/23 10:37:03;;;;;;;9.68;6.72;;;;;;;;;;5110503;27;20376;-78
2023/01/23 10:39:32;;;;;;;11.65;6.47;;;;;;;;;;5107707;27;20055;-78
2023/01/23 10:41:58;;;;;;;12.90;7.80;;;;;;;;;;5110235;27;20012;-79
2023/01/23 10:44:24;;;;;;;11.77;6.72;;;;;;;;;;5109204;27;20074;-78
2023/01/23 10:46:53;;;;;;;10.85;7.35;;;;;;;;;;5111142;27;20031;-78
2023/01/23 10:49:31;;;;;;;11.23;6.80;;;;;;;;;;5115882;27;20034;-79
2023/01/23 10:51:57;;;;;;;11.10;6.63;;;;;;;;;;5110036;27;20035;-79
2023/01/23 10:54:25;;;;;;;9.98;6.28;;;;;;;;;;5095421;28;20127;-79
2023/01/23 10:56:51;;;;;;;10.38;6.43;;;;;;;;;;5118965;27;20328;-79
2023/01/23 10:59:23;;;;;;;10.45;6.97;;;;;;;;;;5092220;28;20519;-79
2023/01/23 11:01:58;;;;;;;10.50;6.32;;;;;;;;;;5098779;28;20051;-79
2023/01/23 11:04:26;;;;;;;11.77;7.10;;;;;;;;;;5103667;28;20069;-79
2023/01/23 11:07:03;;;;;;;8.77;5.85;;;;;;;;;;5092586;28;20104;-80
2023/01/23 11:09:30;;;;;;;7.93;5.65;;;;;;;;;;5097177;28;20043;-80
2023/01/23 11:12:03;;;;;;;10.63;5.70;;;;;;;;;;5091878;28;20059;-79
2023/01/23 11:14:29;;;;;;;7.82;4.50;;;;;;;;;;5090451;28;20032;-78
2023/01/23 11:17:03;;;;;;;6.80;4.78;;;;;;;;;;5097173;28;20509;-78
2023/01/23 11:19:30;;;;;;;10.05;5.10;;;;;;;;;;5101087;28;20043;-78
2023/01/23 11:21:58;;;;;;;6.57;4.35;;;;;;;;;;5088979;28;20022;-79
2023/01/23 11:24:24;;;;;;;22.33;11.07;;;;;;;;;;5083696;28;20032;-84
2023/01/23 11:27:05;;;;;;;7.38;4.22;;;;;;;;;;5079462;28;20033;-83
2023/01/23 11:29:46;;;;;;;6.20;3.85;;;;;;;;;;5088506;28;20028;-78
2023/01/23 11:32:13;;;;;;;4.13;3.20;;;;;;;;;;5087026;28;20016;-80
2023/01/23 11:34:53;;;;;;;3.30;2.85;;;;;;;;;;5094285;28;20132;-80
2023/01/23 11:37:34;;;;;;;2.03;1.83;;;;;;;;;;5104136;27;20972;-81
2023/01/23 11:40:03;;;;;;;2.60;2.08;;;;;;;;;;5087768;28;20491;-81
2023/01/23 11:42:29;;;;;;;2.88;2.15;;;;;;;;;;5094379;28;20023;-77
2023/01/23 11:44:58;;;;;;;4.60;2.40;;;;;;;;;;5109339;28;20032;-80
2023/01/23 11:47:24;;;;;;;4.70;2.47;;;;;;;;;;5094015;28;20096;-79
2023/01/23 11:49:59;;;;;;;1.70;1.60;;;;;;;;;;5096622;28;20369;-82
2023/01/23 11:52:35;;;;;;;2.63;1.85;;;;;;;;;;5101086;28;20079;-83
2023/01/23 11:55:11;;;;;;;1.65;1.30;;;;;;;;;;5097253;28;20028;-83
2023/01/23 11:57:55;;;;;;;3.03;1.90;;;;;;;;;;5094957;28;20027;-76
2023/01/23 12:00:24;;;;;;;18.63;9.77;;;;;;;;;;5088206;28;20048;-84
2023/01/23 12:02:51;;;;;;;48.55;26.27;;;;;;;;;;5099869;28;20032;-81
2023/01/23 12:05:25;;;;;;;8.32;3.90;;;;;;;;;;5102898;28;20032;-78
2023/01/23 12:07:57;;;;;;;9.13;4.60;;;;;;;;;;5086201;28;20080;-79
2023/01/23 12:10:28;;;;;;;1.67;1.58;;;;;;;;;;5097542;28;20414;-81
2023/01/23 12:12:57;;;;;;;1.98;1.40;;;;;;;;;;5095172;28;20028;-83
2023/01/23 12:15:46;;;;;;;2.72;1.40;;;;;;;;;;5086633;28;20036;-81
2023/01/23 12:18:39;;;;;;;1.95;1.60;;;;;;;;;;5089210;28;20419;-81
2023/01/23 12:21:10;;;;;;;2.83;2.03;;;;;;;;;;5063442;28;20043;-79
2023/01/23 12:23:56;;;;;;;2.63;1.55;;;;;;;;;;5091242;28;20024;-80
2023/01/23 12:26:23;;;;;;;1.98;1.70;;;;;;;;;;5092644;28;20115;-83
2023/01/23 12:28:56;;;;;;;1.73;1.55;;;;;;;;;;5096405;28;20084;-82
2023/01/23 12:31:42;;;;;;;1.65;1.10;;;;;;;;;;5084444;28;20427;-81
2023/01/23 12:34:17;;;;;;;1.15;1.00;;;;;;;;;;5072467;28;20107;-81
2023/01/23 12:36:49;;;;;;;1.27;1.17;;;;;;;;;;5092380;28;23247;-82
2023/01/23 12:39:27;;;;;;;4.47;1.55;;;;;;;;;;5086263;28;20031;-81
2023/01/23 12:42:02;;;;;;;1.50;1.30;;;;;;;;;;5085158;28;20190;-80
2023/01/23 12:44:42;;;;;;;1.75;1.50;;;;;;;;;;5090005;28;21035;-82
2023/01/23 12:47:13;;;;;;;1.70;1.50;;;;;;;;;;5089084;28;20423;-81
2023/01/23 12:49:50;;;;;;;2.00;1.80;;;;;;;;;;5099880;28;20036;-80
2023/01/23 12:52:19;;;;;;;3.97;1.88;;;;;;;;;;5099675;28;20027;-83
2023/01/23 12:54:47;;;;;;;2.03;1.80;;;;;;;;;;5095922;28;20042;-82
2023/01/23 12:57:13;;;;;;;1.60;1.50;;;;;;;;;;5093999;28;20461;-81
2023/01/23 12:59:48;;;;;;;1.92;1.73;;;;;;;;;;5113059;27;20055;-81
2023/01/23 13:02:14;;;;;;;2.35;1.85;;;;;;;;;;5110185;27;20035;-81
2023/01/23 13:04:50;;;;;;;2.38;1.70;;;;;;;;;;5112963;27;20077;-80
2023/01/23 13:07:16;;;;;;;2.15;1.80;;;;;;;;;;5110306;27;20126;-81
2023/01/23 13:10:01;;;;;;;2.75;1.80;;;;;;;;;;5111670;27;20039;-82
2023/01/23 13:12:28;;;;;;;2.22;1.85;;;;;;;;;;5107243;27;20028;-82
2023/01/23 13:15:14;;;;;;;2.03;1.80;;;;;;;;;;5115114;28;20020;-82
2023/01/23 13:17:45;;;;;;;3.35;1.75;;;;;;;;;;5113384;28;20026;-81
2023/01/23 13:23:18;;;;;;;2.38;2.00;;;;;;;;;;5114765;28;20055;-82
2023/01/23 13:25:45;;;;;;;2.63;2.22;;;;;;;;;;5115095;28;20020;-82
2023/01/23 13:28:37;;;;;;;3.65;2.75;;;;;;;;;;5115786;27;20034;-82
2023/01/23 13:31:04;;;;;;;2.63;2.20;;;;;;;;;;5096582;28;20043;-83
2023/01/23 13:33:33;;;;;;;2.00;1.80;;;;;;;;;;5115025;28;20039;-82
2023/01/23 13:36:32;;;;;;;2.30;1.92;;;;;;;;;;5112982;28;20062;-82
2023/01/23 13:39:01;;;;;;;2.00;1.80;;;;;;;;;;5074709;28;20384;-82
2023/01/23 13:41:28;;;;;;;2.10;1.75;;;;;;;;;;5113882;27;20106;-82
2023/01/23 13:44:03;;;;;;;2.38;2.00;;;;;;;;;;5112923;28;20403;-82
2023/01/23 13:46:29;;;;;;;3.33;2.92;;;;;;;;;;5113378;27;20031;-82
2023/01/23 13:51:49;;;;;;;2.47;2.08;;;;;;;;;;5106973;27;20117;-81
2023/01/23 13:57:05;;;;;;;2.35;2.00;;;;;;;;;;5107278;28;20034;-82
2023/01/23 13:59:31;;;;;;;3.03;2.15;;;;;;;;;;5114826;28;20055;-82
2023/01/23 14:05:14;;;;;;;2.92;2.22;;;;;;;;;;5094728;28;20034;-82
2023/01/23 14:07:52;;;;;;;4.95;2.53;;;;;;;;;;5106841;28;20020;-83
2023/01/23 14:10:26;;;;;;;2.58;2.13;;;;;;;;;;5123506;28;20031;-83
2023/01/23 14:13:01;;;;;;;3.10;2.80;;;;;;;;;;5115846;28;20058;-82
2023/01/23 14:18:25;;;;;;;2.63;2.42;;;;;;;;;;5112995;28;20510;-81
2023/01/23 14:20:51;;;;;;;2.92;2.63;;;;;;;;;;5114384;28;20030;-80
2023/01/23 14:23:23;;;;;;;3.45;2.75;;;;;;;;;;5113637;28;20058;-81
2023/01/23 14:25:49;;;;;;;2.70;2.50;;;;;;;;;;5110134;28;20082;-81
2023/01/23 14:28:16;;;;;;;3.28;2.97;;;;;;;;;;5116559;27;20360;-80
2023/01/23 14:30:52;;;;;;;3.45;3.15;;;;;;;;;;5111632;28;20026;-81
2023/01/23 14:33:18;;;;;;;3.78;2.80;;;;;;;;;;5089337;28;20096;-80
2023/01/23 14:35:45;;;;;;;2.88;2.63;;;;;;;;;;5091757;28;20028;-79
2023/01/23 14:38:15;;;;;;;18.38;10.13;;;;;;;;;;5105007;27;20443;-80
2023/01/23 14:40:42;;;;;;;20.58;11.25;;;;;;;;;;5111882;27;20031;-78
2023/01/23 14:43:11;;;;;;;3.35;2.50;;;;;;;;;;5107372;28;20035;-81
2023/01/23 14:45:37;;;;;;;2.75;2.53;;;;;;;;;;5112064;28;20498;-79
2023/01/23 14:48:05;;;;;;;3.85;2.65;;;;;;;;;;5115032;27;20024;-80
2023/01/23 14:50:31;;;;;;;3.00;2.50;;;;;;;;;;5111081;28;20448;-80
2023/01/23 14:52:58;;;;;;;3.03;2.50;;;;;;;;;;5111016;28;20023;-80
2023/01/23 14:55:25;;;;;;;4.72;2.72;;;;;;;;;;5114285;27;20050;-80
2023/01/23 14:57:52;;;;;;;3.55;3.25;;;;;;;;;;5123320;27;20031;-79
2023/01/23 15:00:19;;;;;;;3.35;3.05;;;;;;;;;;5113412;27;20256;-79